Wednesday, July 23, 2014
13:52 UTC
  |  Log In   |  Register Free
Airport Search:

New Richmond Regional Airport
(KRNH)

New Richmond Regional Airport Diagram
No Airport Diagram Available

FAA data valid effective May 29, 2014 until July 24, 2014 (unless otherwise noted).

 
 
 
 
 
 
 
 
 
 
 
 
 
 

Current Aviation Weather for New Richmond Regional Airport (KRNH)

The most recent METAR observation for KRNH was updated at: 1235 UTC
METAR Summary (Translated METAR)
KRNH
231235Z AUTO 35003KT 10SM CLR 16/15 A3025 RMK AO2 T01600153
KOEO
(11.6 nm NW from KRNH)
231235Z AUTO 00000KT 10SM CLR 16/15 A3028 RMK AO2 T01560152
TAF Summary (Translated TAF)
KRNH
231128Z 2312/2412 00000KT 5SM BR SKC TEMPO 2312/2313 2SM BR FEW005 FM231400 36003KT P6SM SKC FM231700 36008KT P6SM SCT050 FM240100 03004KT P6SM SKC FM241000 00000KT 4SM BR SKC
  Airport Weather Conditions for KRNH

 Current Weather at RNH
61° F
Fair
North winds at 3.5 mph
RNH NOAA Radar

Pressure: 30.25 in
Humidity: 96%
Wind: North at 3.5 MPH (3 KT)
Dew Point: 59.5°F
Visibility: 10.00 mi


Airport Weather Forecast for KRNH

Translated METAR and TAF for KRNH
Translated METAR for KRNH (1345 UTC 23 July 2014)
found at http://aviationweather.gov/adds/metars/
 
METAR text: KRNH 231335Z AUTO 00000KT 10SM CLR 19/14 A3026 RMK AO2 T01900144
Conditions at: KRNH (NEW RICHMOND MUN, WI, US) observed 1335 UTC 23 July 2014
Temperature: 19.0°C (66°F)
Dewpoint: 14.4°C (58°F) [RH = 75%]
Pressure (altimeter): 30.26 inches Hg (1024.8 mb)
Winds: calm
Visibility: 10 or more miles (16+ km)
Ceiling: at least 12,000 feet AGL
Clouds: sky clear below 12,000 feet AGL
Weather: automated observation with no human augmentation;
there may or may not be significant weather present at this time
Translated TAF for KRNH
Forecast for: KRNH (NEW RICHMOND MUN, WI, US)
TAF Text: KRNH 231128Z 2312/2412 00000KT 5SM BR SKC
Forecast period: 1200 to 1400 UTC 23 July 2014
Forecast type: FROM: standard forecast or significant change
Winds: calm
Visibility: 5 miles (8 km)
Clouds: clear skies
Weather: BR  (mist)
TAF Text: TEMPO 2312/2313 2SM BR FEW005
Forecast period: 1200 to 1300 UTC 23 July 2014
Forecast type: TEMPORARY: The following changes expected for less than half the time period
Visibility: 2.00 miles (3.22 km)
Clouds: few clouds at 500 feet AGL
Weather: BR  (mist)
TAF Text: FM231400 36003KT P6SM SKC
Forecast period: 1400 to 1700 UTC 23 July 2014
Forecast type: FROM: standard forecast or significant change
Winds: from the N (360 degrees) at 3 MPH (3 knots; 1.6 m/s)
Visibility: 6 or more miles (10+ km)
Clouds: clear skies
Weather: no significant weather forecast for this period
TAF Text: FM231700 36008KT P6SM SCT050
Forecast period: 1700 UTC 23 July 2014 to 0100 UTC 24 July 2014
Forecast type: FROM: standard forecast or significant change
Winds: from the N (360 degrees) at 9 MPH (8 knots; 4.2 m/s)
Visibility: 6 or more miles (10+ km)
Clouds: scattered clouds at 5000 feet AGL
Weather: no significant weather forecast for this period
TAF Text: FM240100 03004KT P6SM SKC
Forecast period: 0100 to 1000 UTC 24 July 2014
Forecast type: FROM: standard forecast or significant change
Winds: from the NNE (30 degrees) at 5 MPH (4 knots; 2.1 m/s)
Visibility: 6 or more miles (10+ km)
Clouds: clear skies
Weather: no significant weather forecast for this period
TAF Text: FM241000 00000KT 4SM BR SKC
Forecast period: 1000 to 1200 UTC 24 July 2014
Forecast type: FROM: standard forecast or significant change
Winds: calm
Visibility: 4 miles (6 km)
Clouds: clear skies
Weather: BR  (mist)

Find All Airport Services Find A Hotel Find A Rental Car Find A Golf Course Find A Restaurant $100 Hamburger



FBO's on the Field
FBO Company Facility Photos Services Transportation Aviation Fuel Prices: Prices include tax
Catering Weather Repair Courtesy Rental Type 100LL JetA JetA+ MOGAS 8087
 
Griggs Aviation

This FBO has not yet been rated
FS:Independent
Last Updated: Jul-06
Login to update fuel prices
SS:
Contact Griggs AviationMore FBO Information
 
Add another FBO Facility Photos Catering Weather Repair Courtesy Rental Type 100LL JetA JetA+ MOGAS 8087
Services Transportation Aviation Fuel Prices: Prices include tax


GlobalAir.com Airport Resource Center model-print
model-print
model-print
model-print